• Join FlightAware (Why Join?)
  • Login
  • US Flag 
09:46AM EDT


 

Airport Tracker/Info


-or-


 

Live Flight TrackerFlight Track Log ✈ EJA922 ✈ 18-Sep-2013 ✈ KPNE - KOMA

Flight Track Log - Related Links

Times and Time Zones

All times are in EDT time to prevent confusion due to time zone crossing. See the EJA922 flight status page for this flight to view local times or setup timezone preferences in your user account.

Time Position Orientation Groundspeed Altitude Reporting Facility
EDT Latitude Longitude Course Direction KTS MPH feet Rate Location/Type
05:35PM 40.0833 -75.0167 229° Southwest 164 189 700  Level Philadelphia TRACON
05:36PM 40.0500 -75.0667 229° Southwest 219 252 1,900 1,620 Climbing Philadelphia TRACON
05:37PM 40.1167 -75.1000 339° North 261 300 4,000 2,340 Climbing Philadelphia TRACON
05:38PM 40.1833 -75.1500 330° Northwest 272 313 6,900 3,000 Climbing Philadelphia TRACON
05:39PM 40.1883 -75.2650 273° West 300 345 10,300 2,100 Climbing New York Center
05:40PM 40.2006 -75.3800 278° West 311 358 11,500 1,260 Climbing New York Center
05:41PM 40.2181 -75.5169 280° West 359 413 12,900 1,800 Climbing New York Center
05:42PM 40.2658 -75.6264 300° West 380 437 15,200 2,340 Climbing New York Center
05:43PM 40.3344 -75.7319 310° West 380 437 17,600 1,740 Climbing New York Center
05:44PM 40.4125 -75.8522 310° West 392 451 18,700 660 Climbing New York Center
05:45PM 40.4531 -75.9750 293° West 413 475 19,000 120 Climbing New York Center
05:46PM 40.4811 -76.1436 282° West 423 487 19,000 240 Level New York Center
05:47PM 40.5050 -76.3011 281° West 434 499 19,500 1,440 Climbing New York Center
05:48PM 40.5486 -76.4386 293° West 413 475 21,900 2,100 Climbing New York Center
05:49PM 40.6178 -76.5564 308° West 407 468 23,700 1,560 Climbing New York Center
05:50PM 40.6783 -76.6819 302° West 407 468 25,100 1,500 Climbing New York Center
05:51PM 40.6997 -76.8344 281° West 412 474 26,700 1,560 Climbing New York Center
05:52PM 40.7186 -76.9922 279° West 423 487 28,300 1,620 Climbing New York Center
05:53PM 40.7375 -77.1500 279° West 434 499 30,000 1,500 Climbing New York Center
05:54PM 40.7539 -77.3078 278° West 434 499 31,400 1,200 Climbing New York Center
05:55PM 40.7731 -77.4494 280° West 434 499 32,400 1,380 Climbing New York Center
05:56PM 40.7908 -77.6128 278° West 439 505 34,200 1,740 Climbing New York Center
05:58PM 40.8239 -77.9067 279° West 451 519 37,500 1,560 Climbing Cleveland Center
05:59PM 40.8425 -78.0689 279° West 452 520 38,800 960 Climbing Cleveland Center
06:00PM 40.8614 -78.2411 278° West 457 526 39,600 540 Climbing Cleveland Center
06:01PM 40.8822 -78.4447 278° West 472 543 40,000 180 Climbing Cleveland Center
06:02PM 40.9067 -78.6292 280° West 511 588 40,000  Level Cleveland Center
06:03PM 40.9236 -78.8072 277° West 501 577 40,000  Level Cleveland Center
06:04PM 40.9386 -78.9839 276° West 499 574 40,000  Level Cleveland Center
06:05PM 40.9561 -79.1631 277° West 496 571 40,000  Level Cleveland Center
06:06PM 40.9767 -79.3767 277° West 493 567 40,000  Level Cleveland Center
06:07PM 40.9942 -79.5536 278° West 491 565 40,000  Level Cleveland Center
06:08PM 41.0117 -79.7322 277° West 493 567 40,000  Level Cleveland Center
06:09PM 41.0283 -79.9094 277° West 492 566 40,000  Level Cleveland Center
06:10PM 41.0456 -80.0878 277° West 493 567 40,000  Level Cleveland Center
06:11PM 41.0639 -80.3019 277° West 494 568 40,000  Level Cleveland Center
06:13PM 41.0800 -80.4789 277° West 490 564 40,000  Level Cleveland Center
06:14PM 41.0958 -80.6569 277° West 491 565 40,000  Level Cleveland Center
06:15PM 41.1114 -80.8342 277° West 488 562 40,000  Level Cleveland Center
06:16PM 41.1261 -81.0119 276° West 489 563 40,000  Level Cleveland Center
06:17PM 41.1433 -81.2244 276° West 492 566 40,000  Level Cleveland Center
06:18PM 41.1575 -81.4067 276° West 490 564 40,000  Level Cleveland Center
06:19PM 41.1717 -81.5881 276° West 494 568 40,000  Level Cleveland Center
06:20PM 41.1847 -81.7686 276° West 494 568 40,000  Level Cleveland Center
06:21PM 41.1994 -81.9497 276° West 494 568 40,000  Level Cleveland Center
06:22PM 41.2144 -82.1489 276° West 494 568 40,000  Level Cleveland Center
06:23PM 41.2283 -82.3319 276° West 494 568 40,000  Level Cleveland Center
06:24PM 41.2417 -82.5142 276° West 491 565 40,000  Level Cleveland Center
06:25PM 41.2542 -82.6953 275° West 489 563 40,000  Level Cleveland Center
06:26PM 41.2683 -82.9058 275° West 487 560 40,000  Level Cleveland Center
06:27PM 41.2803 -83.0858 275° West 486 559 40,000  Level Cleveland Center
06:28PM 41.2917 -83.2628 275° West 484 557 40,000  Level Cleveland Center
06:29PM 41.3031 -83.4419 275° West 485 558 40,000  Level Cleveland Center
06:30PM 41.3136 -83.6214 275° West 486 559 40,000  Level Cleveland Center
06:31PM 41.3239 -83.8019 274° West 488 562 40,000  Level Cleveland Center
06:32PM 41.3356 -83.9714 275° West 487 560 40,000  Level Chicago Center
06:33PM 41.3458 -84.1511 274° West 487 560 40,000  Level Chicago Center
06:34PM 41.3569 -84.3669 274° West 489 563 40,000  Level Chicago Center
06:35PM 41.3664 -84.5447 274° West 485 558 40,000  Level Chicago Center
06:36PM 41.3756 -84.7222 274° West 481 554 40,000  Level Chicago Center
06:37PM 41.3842 -84.8983 274° West 478 550 40,000  Level Chicago Center
06:38PM 41.3928 -85.0761 274° West 479 551 40,000  Level Chicago Center
06:39PM 41.3997 -85.2528 273° West 475 547 40,000  Level Chicago Center
06:40PM 41.4083 -85.4342 274° West 481 554 40,000  Level Chicago Center
06:41PM 41.4178 -85.6508 273° West 482 555 40,000  Level Chicago Center
06:42PM 41.4253 -85.8311 273° West 483 556 40,000  Level Chicago Center
06:43PM 41.4331 -86.0092 273° West 482 555 40,000  Level Chicago Center
06:45PM 41.4400 -86.1878 273° West 480 552 40,000  Level Chicago Center
06:46PM 41.4467 -86.3672 273° West 485 558 40,000  Level Chicago Center
06:47PM 41.4531 -86.5489 273° West 490 564 40,000  Level Chicago Center
06:48PM 41.4597 -86.7617 272° West 491 565 40,000 240 Level Chicago Center
06:49PM 41.4664 -86.9389 273° West 483 556 40,500 480 Climbing Chicago Center
06:50PM 41.4719 -87.1178 272° West 483 556 41,000 420 Climbing Chicago Center
06:51PM 41.4761 -87.2947 272° West 481 554 41,400 420 Climbing Chicago Center
06:52PM 41.4825 -87.4717 273° West 479 551 41,900 540 Climbing Chicago Center
06:53PM 41.4875 -87.6786 272° West 469 540 42,600 480 Climbing Chicago Center
06:54PM 41.4911 -87.8486 272° West 465 535 43,000 180 Climbing Chicago Center
06:55PM 41.4944 -88.0128 272° West 469 540 43,000  Level Chicago Center
06:56PM 41.4989 -88.2169 272° West 470 541 43,000  Level Chicago Center
06:57PM 41.5036 -88.3875 272° West 467 537 43,000  Level Chicago Center
06:58PM 41.5058 -88.5586 271° West 467 537 43,000  Level Chicago Center
06:59PM 41.5092 -88.7289 272° West 463 533 43,000  Level Chicago Center
07:00PM 41.5114 -88.9000 271° West 465 535 43,000  Level Chicago Center
07:01PM 41.5136 -89.1033 271° West 461 531 43,000  Level Chicago Center
07:02PM 41.5169 -89.2856 271° West 468 539 43,000  Level Chicago Center
07:03PM 41.5192 -89.4586 271° West 468 539 43,000  Level Chicago Center
07:04PM 41.5206 -89.6317 271° West 470 541 43,000  Level Chicago Center
07:05PM 41.5222 -89.8044 271° West 470 541 43,000  Level Chicago Center
07:06PM 41.5231 -89.9769 270° West 469 540 43,000  Level Chicago Center
07:07PM 41.5244 -90.1497 271° West 469 540 43,000  Level Chicago Center
07:08PM 41.5253 -90.3569 270° West 469 540 43,000  Level Chicago Center
07:09PM 41.5261 -90.5311 270° West 471 542 43,000  Level Chicago Center
07:10PM 41.5256 -90.7069 270° West 475 547 43,000  Level Chicago Center
07:11PM 41.5231 -90.8972 269° West 475 547 43,000  Level Chicago Center
07:12PM 41.5222 -91.0694 270° West 469 540 43,000  Level Chicago Center
07:13PM 41.5214 -91.2419 270° West 468 539 43,000  Level Chicago Center
07:15PM 41.5203 -91.4144 270° West 469 540 43,000 -120 Level Chicago Center
07:16PM 41.5183 -91.6231 269° West 471 542 42,800 -240 Descending Chicago Center
07:17PM 41.5131 -91.7972 268° West 472 543 42,600 -300 Descending Chicago Center
07:18PM 41.5067 -91.9664 267° West 463 533 42,300 -480 Descending Chicago Center
07:19PM 41.5022 -92.1364 268° West 462 532 41,700 -720 Descending Chicago Center
07:20PM 41.4944 -92.3092 267° West 468 539 40,900 -780 Descending Chicago Center
07:21PM 41.4875 -92.4975 267° West 481 554 40,200 -480 Descending Chicago Center
07:22PM 41.4803 -92.6761 267° West 488 562 40,000 -180 Descending Chicago Center
07:22PM 41.4764 -92.7831 267° West 485 558 40,000  Level Minneapolis Center
07:23PM 41.4683 -92.9597 267° West 485 558 40,000  Level Minneapolis Center
07:24PM 41.4614 -93.1328 267° West 478 550 40,000 -540 Level Minneapolis Center
07:25PM 41.4525 -93.3386 267° West 472 543 38,900 -900 Descending Minneapolis Center
07:26PM 41.4439 -93.5108 266° West 471 542 38,200 -540 Descending Minneapolis Center
07:27PM 41.4400 -93.6747 268° West 458 527 37,800 -960 Descending Minneapolis Center
07:28PM 41.4489 -93.8444 274° West 462 532 36,300 -1,260 Descending Minneapolis Center
07:30PM 41.4608 -94.0550 274° West 476 548 35,200 -1,020 Descending Minneapolis Center
07:31PM 41.4692 -94.2286 274° West 475 547 34,300 -1,920 Descending Minneapolis Center
07:32PM 41.4781 -94.4231 274° West 488 562 31,300 -3,000 Descending Minneapolis Center
07:33PM 41.4881 -94.6064 274° West 495 570 28,200 -3,360 Descending Minneapolis Center
07:34PM 41.4961 -94.7814 274° West 475 547 24,400 -3,720 Descending Minneapolis Center
07:35PM 41.5047 -94.9481 274° West 455 524 20,600 -3,720 Descending Minneapolis Center
07:35PM 41.5192 -95.0244 284° West 433 498 19,300 -2,340 Descending Minneapolis Center
07:36PM 41.5108 -95.1031 262° West 426 490 18,200 -2,100 Descending Minneapolis Center
07:37PM 41.4978 -95.2456 263° West 392 451 15,700 -2,760 Descending Minneapolis Center
07:38PM 41.4650 -95.4058 255° West 376 433 12,600 -2,400 Descending Minneapolis Center
07:39PM 41.4475 -95.5181 258° West 308 354 11,100 -1,560 Descending Minneapolis Center
07:39PM 41.4419 -95.5200 195° South 340 391 11,000 -1,440 Descending Minneapolis Center
07:40PM 41.4222 -95.6228 256° West 313 360 9,400 -1,860 Descending Minneapolis Center
07:41PM 41.4222 -95.7269 270° West 267 307 7,400 -1,980 Descending Minneapolis Center
07:41PM 41.4203 -95.7194 109° East 282 325 7,400 -2,100 Level Minneapolis Center
07:42PM 41.4211 -95.8383 271° West 266 306 5,100 -1,980 Descending Minneapolis Center
07:42PM 41.4192 -95.8183 97° East 272 313 5,400 -840 Climbing Minneapolis Center
07:43PM 41.4356 -95.9283 281° West 238 274 4,300 -1,200 Descending Minneapolis Center
07:43PM 41.4336 -95.9247 126° Southeast 254 292 4,200 -1,020 Descending Minneapolis Center
07:44PM 41.3983 -95.9686 223° Southwest 163 188 3,300 -1,020 Descending Minneapolis Center
07:44PM 41.3958 -95.9617 116° Southeast 203 234 3,200 -1,200 Descending Minneapolis Center
07:45PM 41.3572 -95.9483 165° South 142 163 2,100 -1,200 Descending Minneapolis Center
07:45PM 41.3550 -95.9411 112° Southeast 173 199 2,000 -840 Descending Minneapolis Center
07:46PM 41.3258 -95.9161 147° Southeast 130 150 1,300 -720 Descending Minneapolis Center
07:46PM 41.3247 -95.9103 104° East 150 173 1,300 -300 Level Minneapolis Center
07:47PM 41.2964 -95.8839 145° Southeast 145 167 1,000 -300 Descending Minneapolis Center
07:49PM 41.3000 -95.8833 North  Level FlightAware Approximate